Klar, wolkenlos
Klar, wolkenlos
Klar, wolkenlos
Klar, wolkenlos
Klar, wolkenlos
Klar, wolkenlos
Klar, wolkenlos
(°C)
22°
22°
20°
20°
19°
19°
17°
17°
16°
16°
15°
15°
14°
14°
(°C)
21°
20°
19°
17°
16°
14°
13°
W
W
WSW
SSW
S
O
ONO
(km/h)
9-22
3-11
2-7
2-6
2-5
3-6
3-6
(mm)
0
0
0
0
0
0
0
(%)
0
0
0
0
0
0
0

Sonnenhöhe

/ -9.2°
sun-icon
UV 7
06:58
20:15
Zunehmender Halbmond (75°)
10:53
02:06

METAR für Ioannina (LGIO)

Zeit Bedingungen Temperatur/
Taupunkt
Wind Sichtweite Wetter Wolken Druck Änderung Roh
VFR 21°C / 11°C 310º 5kt 9700m - Few Clouds 5000ft 1022 - LGIO 141720Z 31005KT 9999 FEW050 21/11 Q1022
VFR 23°C / 11°C 340º 5kt 9700m - Few Clouds 5000ft 1022 - LGIO 141650Z 34005KT 9999 FEW050 23/11 Q1022
VFR 24°C / 11°C 290º variable 260º to 320º 5kt 9700m - Few Clouds 5000ft 1022 - LGIO 141620Z 29005KT 260V320 9999 FEW050 24/11 Q1022
VFR 25°C / 11°C 300º variable 260º to 320º 7kt 9700m - Few Clouds 5000ft 1021 - LGIO 141550Z 30007KT 260V320 9999 FEW050 25/11 Q1021
VFR 26°C / 11°C 290º variable 260º to 330º 7kt 9700m - Few Clouds 5000ft 1021 - LGIO 141520Z 29007KT 260V330 9999 FEW050 26/11 Q1021
VFR 27°C / 11°C 280º variable 220º to 330º 6kt 9700m - Few Clouds 5000ft 1021 - LGIO 141450Z 28006KT 220V330 9999 FEW050 27/11 Q1021
VFR 27°C / 11°C 290º variable 250º to 320º 7kt 9700m - Few Clouds 5000ft 1021 - LGIO 141420Z 29007KT 250V320 9999 FEW050 27/11 Q1021
VFR 28°C / 11°C 290º variable 250º to 330º 6kt 9700m - Few Clouds 5000ft 1021 - LGIO 141350Z 29006KT 250V330 9999 FEW050 28/11 Q1021
28°C / 11°C 280º variable 240º to 320º 7kt - 1022 - LGIO 141320Z AUTO 28007KT 240V320 //// // ////// 28/11 Q1022 RE//
28°C / 9°C 290º variable 240º to 010º 4kt - 1022 - LGIO 141250Z AUTO 29004KT 240V010 //// // ////// 28/09 Q1022 RE//
28°C / 9°C 320º variable 210º to 340º 5kt - 1022 - LGIO 141220Z AUTO 32005KT 210V340 //// // ////// 28/09 Q1022 RE//
28°C / 9°C 260º variable 200º to 330º 4kt - 1023 - LGIO 141150Z AUTO 26004KT 200V330 //// // ////// 28/09 Q1023 RE//
VFR 28°C / 9°C 310º variable 240º to 350º 6kt 9700m - Few Clouds 5000ft 1023 - LGIO 141120Z 31006KT 240V350 9999 FEW050 28/09 Q1023
VFR 28°C / 9°C 290º variable 240º to 340º 6kt 9700m - Few Clouds 5000ft 1023 - LGIO 141050Z 29006KT 240V340 9999 FEW050 28/09 Q1023
VFR 26°C / 10°C 360º variable 300º to 040º 4kt 9700m - Few Clouds 5000ft 1023 - LGIO 141020Z 36004KT 300V040 9999 FEW050 26/10 Q1023
VFR 26°C / 10°C 3kt 9700m - Clouds and Visibility OK 1024 - LGIO 140950Z VRB03KT CAVOK 26/10 Q1024
VFR 25°C / 10°C 3kt 9700m - Clouds and Visibility OK 1024 - LGIO 140920Z VRB03KT CAVOK 25/10 Q1024
VFR 24°C / 11°C 2kt 9700m - Clouds and Visibility OK 1024 - LGIO 140850Z VRB02KT CAVOK 24/11 Q1024
VFR 22°C / 11°C 2kt 9700m - Clouds and Visibility OK 1024 - LGIO 140820Z VRB02KT CAVOK 22/11 Q1024
VFR 21°C / 11°C 2kt 9700m - Clouds and Visibility OK 1025 - LGIO 140750Z VRB02KT CAVOK 21/11 Q1025
VFR 19°C / 11°C 2kt 9700m - Clouds and Visibility OK 1025 - LGIO 140720Z VRB02KT CAVOK 19/11 Q1025
VFR 18°C / 11°C 2kt 9700m - Clouds and Visibility OK 1025 - LGIO 140650Z VRB02KT CAVOK 18/11 Q1025
VFR 15°C / 11°C variable 0kt 9700m - Clouds and Visibility OK 1025 - LGIO 140620Z 00000KT CAVOK 15/11 Q1025
VFR 13°C / 10°C variable 0kt 9700m - Clouds and Visibility OK 1025 - LGIO 140550Z 00000KT CAVOK 13/10 Q1025

VFR

21°C / 11°C

[Mehr]
Wind 310º 5kt
Sichtweite 9700m
Wetter -
Wolken Few Clouds 5000ft
Druck 1022
Änderung -
Roh LGIO 141720Z 31005KT 9999 FEW050 21/11 Q1022

VFR

23°C / 11°C

[Mehr]
Wind 340º 5kt
Sichtweite 9700m
Wetter -
Wolken Few Clouds 5000ft
Druck 1022
Änderung -
Roh LGIO 141650Z 34005KT 9999 FEW050 23/11 Q1022

VFR

24°C / 11°C

[Mehr]
Wind 290º variable 260º to 320º 5kt
Sichtweite 9700m
Wetter -
Wolken Few Clouds 5000ft
Druck 1022
Änderung -
Roh LGIO 141620Z 29005KT 260V320 9999 FEW050 24/11 Q1022

VFR

25°C / 11°C

[Mehr]
Wind 300º variable 260º to 320º 7kt
Sichtweite 9700m
Wetter -
Wolken Few Clouds 5000ft
Druck 1021
Änderung -
Roh LGIO 141550Z 30007KT 260V320 9999 FEW050 25/11 Q1021

VFR

26°C / 11°C

[Mehr]
Wind 290º variable 260º to 330º 7kt
Sichtweite 9700m
Wetter -
Wolken Few Clouds 5000ft
Druck 1021
Änderung -
Roh LGIO 141520Z 29007KT 260V330 9999 FEW050 26/11 Q1021

VFR

27°C / 11°C

[Mehr]
Wind 280º variable 220º to 330º 6kt
Sichtweite 9700m
Wetter -
Wolken Few Clouds 5000ft
Druck 1021
Änderung -
Roh LGIO 141450Z 28006KT 220V330 9999 FEW050 27/11 Q1021

VFR

27°C / 11°C

[Mehr]
Wind 290º variable 250º to 320º 7kt
Sichtweite 9700m
Wetter -
Wolken Few Clouds 5000ft
Druck 1021
Änderung -
Roh LGIO 141420Z 29007KT 250V320 9999 FEW050 27/11 Q1021

VFR

28°C / 11°C

[Mehr]
Wind 290º variable 250º to 330º 6kt
Sichtweite 9700m
Wetter -
Wolken Few Clouds 5000ft
Druck 1021
Änderung -
Roh LGIO 141350Z 29006KT 250V330 9999 FEW050 28/11 Q1021

28°C / 11°C

[Mehr]
Wind 280º variable 240º to 320º 7kt
Sichtweite
Wetter -
Wolken
Druck 1022
Änderung -
Roh LGIO 141320Z AUTO 28007KT 240V320 //// // ////// 28/11 Q1022 RE//

28°C / 9°C

[Mehr]
Wind 290º variable 240º to 010º 4kt
Sichtweite
Wetter -
Wolken
Druck 1022
Änderung -
Roh LGIO 141250Z AUTO 29004KT 240V010 //// // ////// 28/09 Q1022 RE//

28°C / 9°C

[Mehr]
Wind 320º variable 210º to 340º 5kt
Sichtweite
Wetter -
Wolken
Druck 1022
Änderung -
Roh LGIO 141220Z AUTO 32005KT 210V340 //// // ////// 28/09 Q1022 RE//

28°C / 9°C

[Mehr]
Wind 260º variable 200º to 330º 4kt
Sichtweite
Wetter -
Wolken
Druck 1023
Änderung -
Roh LGIO 141150Z AUTO 26004KT 200V330 //// // ////// 28/09 Q1023 RE//

VFR

28°C / 9°C

[Mehr]
Wind 310º variable 240º to 350º 6kt
Sichtweite 9700m
Wetter -
Wolken Few Clouds 5000ft
Druck 1023
Änderung -
Roh LGIO 141120Z 31006KT 240V350 9999 FEW050 28/09 Q1023

VFR

28°C / 9°C

[Mehr]
Wind 290º variable 240º to 340º 6kt
Sichtweite 9700m
Wetter -
Wolken Few Clouds 5000ft
Druck 1023
Änderung -
Roh LGIO 141050Z 29006KT 240V340 9999 FEW050 28/09 Q1023

VFR

26°C / 10°C

[Mehr]
Wind 360º variable 300º to 040º 4kt
Sichtweite 9700m
Wetter -
Wolken Few Clouds 5000ft
Druck 1023
Änderung -
Roh LGIO 141020Z 36004KT 300V040 9999 FEW050 26/10 Q1023

VFR

26°C / 10°C

[Mehr]
Wind 3kt
Sichtweite 9700m
Wetter -
Wolken Clouds and Visibility OK
Druck 1024
Änderung -
Roh LGIO 140950Z VRB03KT CAVOK 26/10 Q1024

VFR

25°C / 10°C

[Mehr]
Wind 3kt
Sichtweite 9700m
Wetter -
Wolken Clouds and Visibility OK
Druck 1024
Änderung -
Roh LGIO 140920Z VRB03KT CAVOK 25/10 Q1024

VFR

24°C / 11°C

[Mehr]
Wind 2kt
Sichtweite 9700m
Wetter -
Wolken Clouds and Visibility OK
Druck 1024
Änderung -
Roh LGIO 140850Z VRB02KT CAVOK 24/11 Q1024

VFR

22°C / 11°C

[Mehr]
Wind 2kt
Sichtweite 9700m
Wetter -
Wolken Clouds and Visibility OK
Druck 1024
Änderung -
Roh LGIO 140820Z VRB02KT CAVOK 22/11 Q1024

VFR

21°C / 11°C

[Mehr]
Wind 2kt
Sichtweite 9700m
Wetter -
Wolken Clouds and Visibility OK
Druck 1025
Änderung -
Roh LGIO 140750Z VRB02KT CAVOK 21/11 Q1025

VFR

19°C / 11°C

[Mehr]
Wind 2kt
Sichtweite 9700m
Wetter -
Wolken Clouds and Visibility OK
Druck 1025
Änderung -
Roh LGIO 140720Z VRB02KT CAVOK 19/11 Q1025

VFR

18°C / 11°C

[Mehr]
Wind 2kt
Sichtweite 9700m
Wetter -
Wolken Clouds and Visibility OK
Druck 1025
Änderung -
Roh LGIO 140650Z VRB02KT CAVOK 18/11 Q1025

VFR

15°C / 11°C

[Mehr]
Wind variable 0kt
Sichtweite 9700m
Wetter -
Wolken Clouds and Visibility OK
Druck 1025
Änderung -
Roh LGIO 140620Z 00000KT CAVOK 15/11 Q1025

VFR

13°C / 10°C

[Mehr]
Wind variable 0kt
Sichtweite 9700m
Wetter -
Wolken Clouds and Visibility OK
Druck 1025
Änderung -
Roh LGIO 140550Z 00000KT CAVOK 13/10 Q1025

TAF für Ioannina (LGIO)

From till


From till Wind 3kt. Visibility 9700m. Few Clouds 2500ft.

Roh: TAF LGIO 141700Z 1418/1503 VRB03KT 9999 FEW025

Radar- und Niederschlags-Nowcast für Ioannina

Nieselregen
Leicht
Moderat
Stark
Sehr schwer
Hagel

Die Ortsmarkierung zeigt auf Ioannina. Diese Animation zeigt das Niederschlagsradar für den ausgewählten Zeitraum sowie eine 2h-Vorhersage. Orange Kreuze zeigen Blitze an. Daten bereitgestellt von nowcast.de (verfügbar in den USA, Europa, Australien). Nieselregen oder leichter Schneefall können für den Radar unsichtbar sein. Die Niederschlagsintensität ist farbcodiert und reicht von hellblau bis rot.

Aktuelle Satelliten- und Regenbilder für Ioannina, Griechenland

Die Standortmarkierung ist platziert auf Ioannina. [Mehr]

Das Echtzeit-Satellitenbild kombiniert sichtbares Licht während des Tages mit Infrarotstrahlung während der Nacht. Nachts ist das Bild nicht dunkel, da Infrarotstrahlung Temperaturunterschiede erkennen kann. Leider sind niedrige Wolken und Nebel nur schwer von den Bodentemperaturen zu unterscheiden und können daher nachts fast unsichtbar sein. Meteosat-Satellitenbilder für Europa werden alle 5 Minuten in Echtzeit aktualisiert. Die Bilder GOES-16 / GOES-17 (Nord- und Südamerika) und Himawari (Asien) werden alle 10 Minuten aktualisiert.

Niederschläge werden von Radar und Satelliten berechnet. Nachts sind die Niederschlagsberechnungen durch die Satelliten weniger genau als tagsüber.

© 2024 meteoblue, NOAA Satellites GOES-16 and EUMETSAT. Blitzdaten zur Verfügung gestellt von nowcast.

Zum Anfang
×
Hallo,
es scheint, als würden Sie einen Werbeblocker benutzen.

Werbung ist unerlässlich, um unsere kostenlose Website mit einzigartiger Detailtreue und Genauigkeit zu pflegen.

Bitte setzen Sie www.meteoblue.com auf die Whitelist Ihres Werbeblockers oder erwägen Sie den Kauf eines unserer Produkte:

Sie haben bereits ein Abonnement?
Dann melden Sie sich bitte an.